Friday, April 18, 2014
00:28 UTC
  |  Log In   |  Register Free
Airport Search:

Carmi Municipal Airport
(KCUL)

Carmi Municipal Airport Diagram
No Airport Diagram Available

FAA data valid effective April 3, 2014 until May 29, 2014 (unless otherwise noted).

 
 
 
 
 
 
 
 
 
 
 
 
 
 

Current Aviation Weather for Carmi Municipal Airport (KCUL)

The most recent METAR observation for KCUL was updated at: 2355 UTC
METAR Summary (Translated METAR)
KCUL
172355Z AUTO 12005KT 10SM CLR 18/09 A3023 RMK AO2 T01810086 10201 20181
KFWC
(22.1 nm NW from KCUL)
172355Z AUTO 18003KT 10SM CLR 18/05 A3023 RMK AO2
TAF
No TAF information found within 50 nm of KCUL
  Airport Weather Conditions for KCUL

 Current Weather at CUL
66° F
Fair
Southeast winds at 5.8 mph
CUL NOAA Radar

Pressure: 30.23 in
Humidity: 48%
Wind: Southeast at 5.8 MPH (5 KT)
Dew Point: 46.0°F
Visibility: 10.00 mi


Airport Weather Forecast for KCUL

Translated METAR and TAF for KCUL
Translated METAR for KCUL (0028 UTC 18 April 2014)
found at http://aviationweather.gov/adds/metars/
 
METAR text: KCUL 172355Z AUTO 12005KT 10SM CLR 18/09 A3023 RMK AO2 T01810086 10201 20181
Conditions at: KCUL (CARMI MUNI , IL, US) observed 2355 UTC 17 April 2014
Temperature: 18.1°C (65°F)
Dewpoint: 8.6°C (47°F) [RH = 54%]
Pressure (altimeter): 30.23 inches Hg (1023.8 mb)
Winds: from the ESE (120 degrees) at 6 MPH (5 knots; 2.6 m/s)
Visibility: 10 or more miles (16+ km)
Ceiling: at least 12,000 feet AGL
Clouds: sky clear below 12,000 feet AGL
Weather: automated observation with no human augmentation;
there may or may not be significant weather present at this time
Translated TAF for KCUL

There is no translated TAF available for this airport

Find All Airport Services Find A Hotel Find A Rental Car Find A Golf Course Find A Restaurant $100 Hamburger



FBO's on the Field
FBO Company Facility Photos Services Transportation Aviation Fuel Prices: Prices include tax
Catering Weather Repair Courtesy Rental Type 100LL JetA JetA+ MOGAS 8087
 
Carmi Municipal Airport

This FBO has not yet been rated
FS:Independent
Last Updated: Mar-12
Login to update fuel prices
SS:
Contact Carmi Municipal AirportMore FBO Information
 
Add another FBO Facility Photos Catering Weather Repair Courtesy Rental Type 100LL JetA JetA+ MOGAS 8087
Services Transportation Aviation Fuel Prices: Prices include tax


GlobalAir.com Airport Resource Center model-print
model-print
model-print
model-print